sensor_id;sensor_type;location;lat;lon;timestamp;P1;durP1;ratioP1;P2;durP2;ratioP2
45863;SDS011;31579;52.354;16.974;2022-11-04T00:01:03;25.80;;;13.90;;
45863;SDS011;31579;52.354;16.974;2022-11-04T00:06:03;29.40;;;15.00;;
45863;SDS011;31579;52.354;16.974;2022-11-04T00:11:03;29.40;;;15.00;;
45863;SDS011;31579;52.354;16.974;2022-11-04T00:16:03;27.60;;;14.90;;
45863;SDS011;31579;52.354;16.974;2022-11-04T00:21:03;27.60;;;14.90;;
45863;SDS011;31579;52.354;16.974;2022-11-04T00:26:03;29.90;;;16.20;;
45863;SDS011;31579;52.354;16.974;2022-11-04T00:31:05;29.90;;;16.20;;
45863;SDS011;31579;52.354;16.974;2022-11-04T00:36:03;34.00;;;18.80;;
45863;SDS011;31579;52.354;16.974;2022-11-04T00:41:03;34.00;;;18.80;;
45863;SDS011;31579;52.354;16.974;2022-11-04T00:46:03;31.40;;;18.30;;
45863;SDS011;31579;52.354;16.974;2022-11-04T00:51:03;31.40;;;18.30;;
45863;SDS011;31579;52.354;16.974;2022-11-04T00:56:03;37.00;;;17.50;;
45863;SDS011;31579;52.354;16.974;2022-11-04T01:06:03;29.60;;;16.00;;
45863;SDS011;31579;52.354;16.974;2022-11-04T01:11:03;29.60;;;16.00;;
45863;SDS011;31579;52.354;16.974;2022-11-04T01:16:04;25.70;;;13.90;;
45863;SDS011;31579;52.354;16.974;2022-11-04T01:21:06;25.70;;;13.90;;
45863;SDS011;31579;52.354;16.974;2022-11-04T01:26:04;28.90;;;14.40;;
45863;SDS011;31579;52.354;16.974;2022-11-04T01:31:07;28.90;;;14.40;;
45863;SDS011;31579;52.354;16.974;2022-11-04T01:36:03;24.30;;;13.00;;
45863;SDS011;31579;52.354;16.974;2022-11-04T01:41:03;24.30;;;13.00;;
45863;SDS011;31579;52.354;16.974;2022-11-04T01:46:03;28.30;;;13.20;;
45863;SDS011;31579;52.354;16.974;2022-11-04T01:51:03;28.30;;;13.20;;
45863;SDS011;31579;52.354;16.974;2022-11-04T01:56:04;26.50;;;13.00;;
45863;SDS011;31579;52.354;16.974;2022-11-04T02:01:03;26.50;;;13.00;;
45863;SDS011;31579;52.354;16.974;2022-11-04T02:06:03;25.90;;;13.20;;
45863;SDS011;31579;52.354;16.974;2022-11-04T02:11:03;25.90;;;13.20;;
45863;SDS011;31579;52.354;16.974;2022-11-04T02:46:05;25.30;;;13.50;;
45863;SDS011;31579;52.354;16.974;2022-11-04T02:51:06;25.30;;;13.50;;
45863;SDS011;31579;52.354;16.974;2022-11-04T02:56:07;26.10;;;14.20;;
45863;SDS011;31579;52.354;16.974;2022-11-04T03:01:03;26.10;;;14.20;;
45863;SDS011;31579;52.354;16.974;2022-11-04T03:06:03;28.50;;;14.30;;
45863;SDS011;31579;52.354;16.974;2022-11-04T03:11:06;28.50;;;14.30;;
45863;SDS011;31579;52.354;16.974;2022-11-04T03:16:04;30.50;;;15.50;;
45863;SDS011;31579;52.354;16.974;2022-11-04T03:21:04;30.50;;;15.50;;
45863;SDS011;31579;52.354;16.974;2022-11-04T03:33:07;30.00;;;15.60;;
45863;SDS011;31579;52.354;16.974;2022-11-04T03:38:03;28.60;;;15.70;;
45863;SDS011;31579;52.354;16.974;2022-11-04T03:43:06;28.60;;;15.70;;
45863;SDS011;31579;52.354;16.974;2022-11-04T03:48:04;31.30;;;15.40;;
45863;SDS011;31579;52.354;16.974;2022-11-04T03:53:03;31.30;;;15.40;;
45863;SDS011;31579;52.354;16.974;2022-11-04T03:58:55;33.20;;;16.40;;
45863;SDS011;31579;52.354;16.974;2022-11-04T04:18:04;35.40;;;19.70;;
45863;SDS011;31579;52.354;16.974;2022-11-04T04:23:08;35.40;;;19.70;;
45863;SDS011;31579;52.354;16.974;2022-11-04T04:28:03;35.70;;;19.20;;
45863;SDS011;31579;52.354;16.974;2022-11-04T04:33:05;35.70;;;19.20;;
45863;SDS011;31579;52.354;16.974;2022-11-04T04:38:04;37.00;;;19.50;;
45863;SDS011;31579;52.354;16.974;2022-11-04T04:43:03;37.00;;;19.50;;
45863;SDS011;31579;52.354;16.974;2022-11-04T04:48:04;46.20;;;21.60;;
45863;SDS011;31579;52.354;16.974;2022-11-04T04:53:03;46.20;;;21.60;;
45863;SDS011;31579;52.354;16.974;2022-11-04T04:58:03;36.00;;;18.10;;
45863;SDS011;31579;52.354;16.974;2022-11-04T05:03:06;36.00;;;18.10;;
45863;SDS011;31579;52.354;16.974;2022-11-04T05:08:04;38.60;;;20.80;;
45863;SDS011;31579;52.354;16.974;2022-11-04T05:13:03;38.60;;;20.80;;
45863;SDS011;31579;52.354;16.974;2022-11-04T05:18:03;39.40;;;20.10;;
45863;SDS011;31579;52.354;16.974;2022-11-04T05:23:03;39.40;;;20.10;;
45863;SDS011;31579;52.354;16.974;2022-11-04T05:28:04;35.80;;;18.00;;
45863;SDS011;31579;52.354;16.974;2022-11-04T05:33:04;35.80;;;18.00;;
45863;SDS011;31579;52.354;16.974;2022-11-04T05:38:03;32.80;;;18.90;;
45863;SDS011;31579;52.354;16.974;2022-11-04T05:43:03;32.80;;;18.90;;
45863;SDS011;31579;52.354;16.974;2022-11-04T05:48:04;37.40;;;18.50;;
45863;SDS011;31579;52.354;16.974;2022-11-04T05:53:03;37.40;;;18.50;;
45863;SDS011;31579;52.354;16.974;2022-11-04T05:58:03;36.70;;;18.60;;
45863;SDS011;31579;52.354;16.974;2022-11-04T06:03:03;36.70;;;18.60;;
45863;SDS011;31579;52.354;16.974;2022-11-04T06:08:04;37.70;;;18.50;;
45863;SDS011;31579;52.354;16.974;2022-11-04T06:13:03;37.70;;;18.50;;
45863;SDS011;31579;52.354;16.974;2022-11-04T06:18:03;41.00;;;19.50;;
45863;SDS011;31579;52.354;16.974;2022-11-04T06:23:06;41.00;;;19.50;;
45863;SDS011;31579;52.354;16.974;2022-11-04T06:28:03;35.80;;;19.20;;
45863;SDS011;31579;52.354;16.974;2022-11-04T06:33:03;35.80;;;19.20;;
45863;SDS011;31579;52.354;16.974;2022-11-04T06:38:03;39.40;;;21.00;;
45863;SDS011;31579;52.354;16.974;2022-11-04T06:44:03;42.40;;;21.00;;
45863;SDS011;31579;52.354;16.974;2022-11-04T06:49:05;42.40;;;21.00;;
45863;SDS011;31579;52.354;16.974;2022-11-04T06:54:03;35.10;;;20.60;;
45863;SDS011;31579;52.354;16.974;2022-11-04T07:01:26;35.10;;;20.60;;
45863;SDS011;31579;52.354;16.974;2022-11-04T07:06:23;41.20;;;20.40;;
45863;SDS011;31579;52.354;16.974;2022-11-04T07:11:24;41.20;;;20.40;;
45863;SDS011;31579;52.354;16.974;2022-11-04T07:16:23;36.50;;;20.80;;
45863;SDS011;31579;52.354;16.974;2022-11-04T07:21:23;36.50;;;20.80;;
45863;SDS011;31579;52.354;16.974;2022-11-04T07:26:23;40.10;;;21.60;;
45863;SDS011;31579;52.354;16.974;2022-11-04T07:31:27;40.10;;;21.60;;
45863;SDS011;31579;52.354;16.974;2022-11-04T07:36:23;40.90;;;20.40;;
45863;SDS011;31579;52.354;16.974;2022-11-04T07:41:23;40.90;;;20.40;;
45863;SDS011;31579;52.354;16.974;2022-11-04T07:46:23;38.20;;;20.90;;
45863;SDS011;31579;52.354;16.974;2022-11-04T07:51:24;38.20;;;20.90;;
45863;SDS011;31579;52.354;16.974;2022-11-04T07:59:55;39.50;;;21.30;;
45863;SDS011;31579;52.354;16.974;2022-11-04T08:04:55;40.20;;;22.50;;
45863;SDS011;31579;52.354;16.974;2022-11-04T08:09:55;40.20;;;22.50;;
45863;SDS011;31579;52.354;16.974;2022-11-04T08:14:55;37.50;;;21.50;;
45863;SDS011;31579;52.354;16.974;2022-11-04T08:19:55;37.50;;;21.50;;
45863;SDS011;31579;52.354;16.974;2022-11-04T08:24:58;36.00;;;20.70;;
45863;SDS011;31579;52.354;16.974;2022-11-04T08:29:55;36.00;;;20.70;;
45863;SDS011;31579;52.354;16.974;2022-11-04T08:34:55;38.40;;;21.20;;
45863;SDS011;31579;52.354;16.974;2022-11-04T08:39:55;38.40;;;21.20;;
45863;SDS011;31579;52.354;16.974;2022-11-04T08:44:55;34.20;;;20.80;;
45863;SDS011;31579;52.354;16.974;2022-11-04T08:49:55;34.20;;;20.80;;
45863;SDS011;31579;52.354;16.974;2022-11-04T08:54:55;32.10;;;19.20;;
45863;SDS011;31579;52.354;16.974;2022-11-04T08:59:55;32.10;;;19.20;;
45863;SDS011;31579;52.354;16.974;2022-11-04T09:04:55;35.90;;;19.50;;
45863;SDS011;31579;52.354;16.974;2022-11-04T09:09:55;35.90;;;19.50;;
45863;SDS011;31579;52.354;16.974;2022-11-04T09:14:55;30.70;;;17.30;;
45863;SDS011;31579;52.354;16.974;2022-11-04T09:19:55;30.70;;;17.30;;
45863;SDS011;31579;52.354;16.974;2022-11-04T09:24:55;28.40;;;16.10;;
45863;SDS011;31579;52.354;16.974;2022-11-04T09:29:07;28.40;;;16.10;;
45863;SDS011;31579;52.354;16.974;2022-11-04T09:34:05;29.60;;;16.20;;
45863;SDS011;31579;52.354;16.974;2022-11-04T09:39:05;29.60;;;16.20;;
45863;SDS011;31579;52.354;16.974;2022-11-04T09:49:05;27.60;;;15.30;;
45863;SDS011;31579;52.354;16.974;2022-11-04T09:54:09;35.60;;;20.90;;
45863;SDS011;31579;52.354;16.974;2022-11-04T09:58:04;35.60;;;20.90;;
45863;SDS011;31579;52.354;16.974;2022-11-04T10:08:15;36.50;;;20.50;;
45863;SDS011;31579;52.354;16.974;2022-11-04T10:18:08;35.30;;;20.40;;
45863;SDS011;31579;52.354;16.974;2022-11-04T10:28:03;34.40;;;18.60;;
45863;SDS011;31579;52.354;16.974;2022-11-04T10:33:09;29.60;;;16.20;;
45863;SDS011;31579;52.354;16.974;2022-11-04T10:43:03;29.30;;;15.80;;
45863;SDS011;31579;52.354;16.974;2022-11-04T10:48:05;29.30;;;15.80;;
45863;SDS011;31579;52.354;16.974;2022-11-04T10:58:02;32.00;;;16.20;;
45863;SDS011;31579;52.354;16.974;2022-11-04T11:03:02;26.30;;;15.70;;
45863;SDS011;31579;52.354;16.974;2022-11-04T11:08:02;26.30;;;15.70;;
45863;SDS011;31579;52.354;16.974;2022-11-04T11:13:04;30.40;;;16.20;;
45863;SDS011;31579;52.354;16.974;2022-11-04T11:23:03;27.70;;;15.30;;
45863;SDS011;31579;52.354;16.974;2022-11-04T11:28:37;27.70;;;15.30;;
45863;SDS011;31579;52.354;16.974;2022-11-04T11:33:44;27.30;;;14.80;;
45863;SDS011;31579;52.354;16.974;2022-11-04T11:38:50;27.30;;;14.80;;
45863;SDS011;31579;52.354;16.974;2022-11-04T11:43:39;28.00;;;16.70;;
45863;SDS011;31579;52.354;16.974;2022-11-04T11:48:38;28.00;;;16.70;;
45863;SDS011;31579;52.354;16.974;2022-11-04T11:51:38;28.00;;;16.70;;
45863;SDS011;31579;52.354;16.974;2022-11-04T11:56:37;27.60;;;15.30;;
45863;SDS011;31579;52.354;16.974;2022-11-04T11:57:09;27.60;;;15.30;;
45863;SDS011;31579;52.354;16.974;2022-11-04T12:02:15;27.60;;;15.30;;
45863;SDS011;31579;52.354;16.974;2022-11-04T12:07:11;29.70;;;15.80;;
45863;SDS011;31579;52.354;16.974;2022-11-04T12:22:17;27.50;;;15.20;;
45863;SDS011;31579;52.354;16.974;2022-11-04T12:53:59;30.90;;;18.10;;
45863;SDS011;31579;52.354;16.974;2022-11-04T13:13:09;28.90;;;17.00;;
45863;SDS011;31579;52.354;16.974;2022-11-04T13:18:09;28.90;;;17.00;;
45863;SDS011;31579;52.354;16.974;2022-11-04T13:28:10;33.70;;;17.70;;
45863;SDS011;31579;52.354;16.974;2022-11-04T13:33:13;34.00;;;18.80;;
45863;SDS011;31579;52.354;16.974;2022-11-04T13:38:12;34.00;;;18.80;;
45863;SDS011;31579;52.354;16.974;2022-11-04T13:48:09;32.80;;;18.20;;
45863;SDS011;31579;52.354;16.974;2022-11-04T13:53:09;40.30;;;20.80;;
45863;SDS011;31579;52.354;16.974;2022-11-04T13:58:14;40.30;;;20.80;;
45863;SDS011;31579;52.354;16.974;2022-11-04T14:08:11;37.10;;;20.10;;
45863;SDS011;31579;52.354;16.974;2022-11-04T14:18:24;37.50;;;20.60;;
45863;SDS011;31579;52.354;16.974;2022-11-04T14:23:17;50.50;;;24.30;;
45863;SDS011;31579;52.354;16.974;2022-11-04T14:44:05;39.90;;;21.70;;
45863;SDS011;31579;52.354;16.974;2022-11-04T14:49:02;39.90;;;21.70;;
45863;SDS011;31579;52.354;16.974;2022-11-04T14:54:03;44.80;;;23.10;;
45863;SDS011;31579;52.354;16.974;2022-11-04T14:59:04;44.80;;;23.10;;
45863;SDS011;31579;52.354;16.974;2022-11-04T15:04:03;58.90;;;32.00;;
45863;SDS011;31579;52.354;16.974;2022-11-04T15:09:17;58.90;;;32.00;;
45863;SDS011;31579;52.354;16.974;2022-11-04T15:14:03;45.60;;;23.90;;
45863;SDS011;31579;52.354;16.974;2022-11-04T15:19:02;45.60;;;23.90;;
45863;SDS011;31579;52.354;16.974;2022-11-04T15:24:02;41.20;;;23.40;;
45863;SDS011;31579;52.354;16.974;2022-11-04T15:29:06;41.20;;;23.40;;
45863;SDS011;31579;52.354;16.974;2022-11-04T15:34:03;50.00;;;27.80;;
45863;SDS011;31579;52.354;16.974;2022-11-04T15:44:02;41.80;;;22.60;;
45863;SDS011;31579;52.354;16.974;2022-11-04T15:49:03;41.80;;;22.60;;
45863;SDS011;31579;52.354;16.974;2022-11-04T15:54:06;43.10;;;23.60;;
45863;SDS011;31579;52.354;16.974;2022-11-04T15:59:05;43.10;;;23.60;;
45863;SDS011;31579;52.354;16.974;2022-11-04T16:04:02;45.10;;;23.90;;
45863;SDS011;31579;52.354;16.974;2022-11-04T16:09:15;45.10;;;23.90;;
45863;SDS011;31579;52.354;16.974;2022-11-04T16:19:02;46.50;;;24.00;;
45863;SDS011;31579;52.354;16.974;2022-11-04T16:24:03;51.40;;;26.80;;
45863;SDS011;31579;52.354;16.974;2022-11-04T16:34:02;46.50;;;24.70;;
45863;SDS011;31579;52.354;16.974;2022-11-04T16:39:03;46.50;;;24.70;;
45863;SDS011;31579;52.354;16.974;2022-11-04T16:44:03;50.00;;;27.30;;
45863;SDS011;31579;52.354;16.974;2022-11-04T16:49:02;50.00;;;27.30;;
45863;SDS011;31579;52.354;16.974;2022-11-04T16:54:02;50.40;;;28.40;;
45863;SDS011;31579;52.354;16.974;2022-11-04T16:59:07;50.40;;;28.40;;
45863;SDS011;31579;52.354;16.974;2022-11-04T17:04:02;54.30;;;27.00;;
45863;SDS011;31579;52.354;16.974;2022-11-04T17:09:03;54.30;;;27.00;;
45863;SDS011;31579;52.354;16.974;2022-11-04T17:14:02;55.60;;;28.00;;
45863;SDS011;31579;52.354;16.974;2022-11-04T17:19:02;55.60;;;28.00;;
45863;SDS011;31579;52.354;16.974;2022-11-04T17:24:02;52.60;;;28.00;;
45863;SDS011;31579;52.354;16.974;2022-11-04T17:29:02;52.60;;;28.00;;
45863;SDS011;31579;52.354;16.974;2022-11-04T17:34:02;56.40;;;28.80;;
45863;SDS011;31579;52.354;16.974;2022-11-04T17:39:02;56.40;;;28.80;;
45863;SDS011;31579;52.354;16.974;2022-11-04T17:44:02;51.30;;;27.10;;
45863;SDS011;31579;52.354;16.974;2022-11-04T17:50:24;51.30;;;27.10;;
45863;SDS011;31579;52.354;16.974;2022-11-04T17:50:38;51.30;;;27.10;;
45863;SDS011;31579;52.354;16.974;2022-11-04T17:55:37;54.80;;;30.00;;
45863;SDS011;31579;52.354;16.974;2022-11-04T18:00:36;54.80;;;30.00;;
45863;SDS011;31579;52.354;16.974;2022-11-04T18:05:36;55.50;;;28.70;;
45863;SDS011;31579;52.354;16.974;2022-11-04T18:09:01;55.50;;;28.70;;
45863;SDS011;31579;52.354;16.974;2022-11-04T18:13:59;56.10;;;31.30;;
45863;SDS011;31579;52.354;16.974;2022-11-04T18:18:59;56.10;;;31.30;;
45863;SDS011;31579;52.354;16.974;2022-11-04T18:23:59;60.40;;;29.20;;
45863;SDS011;31579;52.354;16.974;2022-11-04T18:28:59;60.40;;;29.20;;
45863;SDS011;31579;52.354;16.974;2022-11-04T18:34:00;60.10;;;34.70;;
45863;SDS011;31579;52.354;16.974;2022-11-04T18:39:03;60.10;;;34.70;;
45863;SDS011;31579;52.354;16.974;2022-11-04T18:43:59;63.60;;;33.50;;
45863;SDS011;31579;52.354;16.974;2022-11-04T18:48:59;63.60;;;33.50;;
45863;SDS011;31579;52.354;16.974;2022-11-04T18:54:01;56.60;;;31.50;;
45863;SDS011;31579;52.354;16.974;2022-11-04T18:58:59;56.60;;;31.50;;
45863;SDS011;31579;52.354;16.974;2022-11-04T19:03:59;65.90;;;35.60;;
45863;SDS011;31579;52.354;16.974;2022-11-04T19:09:00;65.90;;;35.60;;
45863;SDS011;31579;52.354;16.974;2022-11-04T19:14:00;63.80;;;33.80;;
45863;SDS011;31579;52.354;16.974;2022-11-04T19:19:00;63.80;;;33.80;;
45863;SDS011;31579;52.354;16.974;2022-11-04T19:23:59;63.90;;;33.10;;
45863;SDS011;31579;52.354;16.974;2022-11-04T19:28:59;63.90;;;33.10;;
45863;SDS011;31579;52.354;16.974;2022-11-04T19:34:00;66.00;;;34.70;;
45863;SDS011;31579;52.354;16.974;2022-11-04T19:38:59;66.00;;;34.70;;
45863;SDS011;31579;52.354;16.974;2022-11-04T19:44:03;63.90;;;34.60;;
45863;SDS011;31579;52.354;16.974;2022-11-04T19:48:59;63.90;;;34.60;;
45863;SDS011;31579;52.354;16.974;2022-11-04T19:53:59;74.20;;;37.50;;
45863;SDS011;31579;52.354;16.974;2022-11-04T19:58:59;74.20;;;37.50;;
45863;SDS011;31579;52.354;16.974;2022-11-04T20:03:59;74.20;;;38.70;;
45863;SDS011;31579;52.354;16.974;2022-11-04T20:09:00;74.20;;;38.70;;
45863;SDS011;31579;52.354;16.974;2022-11-04T20:13:59;72.00;;;38.60;;
45863;SDS011;31579;52.354;16.974;2022-11-04T20:19:01;72.00;;;38.60;;
45863;SDS011;31579;52.354;16.974;2022-11-04T20:24:00;66.90;;;35.40;;
45863;SDS011;31579;52.354;16.974;2022-11-04T20:28:59;66.90;;;35.40;;
45863;SDS011;31579;52.354;16.974;2022-11-04T20:34:00;67.70;;;36.00;;
45863;SDS011;31579;52.354;16.974;2022-11-04T20:39:00;67.70;;;36.00;;
45863;SDS011;31579;52.354;16.974;2022-11-04T20:43:59;60.30;;;30.20;;
45863;SDS011;31579;52.354;16.974;2022-11-04T20:48:59;60.30;;;30.20;;
45863;SDS011;31579;52.354;16.974;2022-11-04T20:54:00;77.40;;;37.10;;
45863;SDS011;31579;52.354;16.974;2022-11-04T20:58:59;77.40;;;37.10;;
45863;SDS011;31579;52.354;16.974;2022-11-04T21:04:04;73.10;;;38.50;;
45863;SDS011;31579;52.354;16.974;2022-11-04T21:08:59;73.10;;;38.50;;
45863;SDS011;31579;52.354;16.974;2022-11-04T21:13:59;81.50;;;41.90;;
45863;SDS011;31579;52.354;16.974;2022-11-04T21:18:59;81.50;;;41.90;;
45863;SDS011;31579;52.354;16.974;2022-11-04T21:24:00;89.40;;;44.70;;
45863;SDS011;31579;52.354;16.974;2022-11-04T21:32:26;78.00;;;39.00;;
45863;SDS011;31579;52.354;16.974;2022-11-04T21:37:26;78.00;;;39.00;;
45863;SDS011;31579;52.354;16.974;2022-11-04T21:42:26;69.00;;;34.40;;
45863;SDS011;31579;52.354;16.974;2022-11-04T21:47:26;69.00;;;34.40;;
45863;SDS011;31579;52.354;16.974;2022-11-04T22:01:03;74.70;;;37.50;;
45863;SDS011;31579;52.354;16.974;2022-11-04T22:06:03;75.30;;;37.70;;
45863;SDS011;31579;52.354;16.974;2022-11-04T22:11:13;75.30;;;37.70;;
45863;SDS011;31579;52.354;16.974;2022-11-04T22:21:07;73.40;;;36.10;;
45863;SDS011;31579;52.354;16.974;2022-11-04T22:26:04;91.90;;;40.80;;
45863;SDS011;31579;52.354;16.974;2022-11-04T22:29:43;91.90;;;40.80;;
45863;SDS011;31579;52.354;16.974;2022-11-04T22:34:41;74.20;;;36.70;;
45863;SDS011;31579;52.354;16.974;2022-11-04T22:39:41;74.20;;;36.70;;
45863;SDS011;31579;52.354;16.974;2022-11-04T22:44:41;77.90;;;38.40;;
45863;SDS011;31579;52.354;16.974;2022-11-04T22:49:51;77.90;;;38.40;;
45863;SDS011;31579;52.354;16.974;2022-11-04T22:54:49;80.70;;;39.20;;
45863;SDS011;31579;52.354;16.974;2022-11-04T22:56:28;80.70;;;39.20;;
45863;SDS011;31579;52.354;16.974;2022-11-04T23:03:49;103.40;;;44.80;;
45863;SDS011;31579;52.354;16.974;2022-11-04T23:08:48;103.40;;;44.80;;
45863;SDS011;31579;52.354;16.974;2022-11-04T23:13:51;85.60;;;39.50;;
45863;SDS011;31579;52.354;16.974;2022-11-04T23:17:15;85.60;;;39.50;;
45863;SDS011;31579;52.354;16.974;2022-11-04T23:22:10;62.10;;;32.90;;
45863;SDS011;31579;52.354;16.974;2022-11-04T23:27:10;62.10;;;32.90;;
45863;SDS011;31579;52.354;16.974;2022-11-04T23:32:10;89.70;;;40.80;;
45863;SDS011;31579;52.354;16.974;2022-11-04T23:37:10;89.70;;;40.80;;
45863;SDS011;31579;52.354;16.974;2022-11-04T23:42:11;87.80;;;41.00;;
45863;SDS011;31579;52.354;16.974;2022-11-04T23:49:03;87.80;;;41.00;;
45863;SDS011;31579;52.354;16.974;2022-11-04T23:54:02;67.50;;;34.50;;
45863;SDS011;31579;52.354;16.974;2022-11-04T23:59:03;67.50;;;34.50;;
